Time;durP1;ratioP1;P1;durP2;ratioP2;P2;SDS_P1;SDS_P2;PMS_P1;PMS_P2;Temp;Humidity;BMP_temperature;BMP_pressure;BME280_temperature;BME280_humidity;BME280_pressure;Samples;Min_cycle;Max_cycle;Signal;HPM_P1;HPM_P2
2024/01/14 00:02:17;;;;;;;;;;;;;;;;;;5133624;28;20010;-43
2024/01/14 00:04:44;;;;;;;;;;;;;;;;;;5133599;28;19930;-45
2024/01/14 00:07:09;;;;;;;;;;;;;;;;;;5133578;28;19923;-42
2024/01/14 00:09:35;;;;;;;;;;;;;;;;;;5133557;28;19930;-42
2024/01/14 00:12:00;;;;;;;;;;;;;;;;;;5133275;28;20018;-44
2024/01/14 00:14:25;;;;;;;;;;;;;;;;;;5133213;28;20009;-44
2024/01/14 00:16:51;;;;;;;;;;;;;;;;;;5132955;28;20014;-42
2024/01/14 00:19:16;;;;;;;;;;;;;;;;;;5133563;28;19928;-41
2024/01/14 00:21:42;;;;;;;;;;;;;;;;;;5133558;28;19923;-45
2024/01/14 00:24:08;;;;;;;;;;;;;;;;;;5133602;28;19974;-43
2024/01/14 00:26:33;;;;;;;;;;;;;;;;;;5133444;28;19924;-42
2024/01/14 00:28:59;;;;;;;;;;;;;;;;;;5132857;28;20054;-43
2024/01/14 00:31:24;;;;;;;;;;;;;;;;;;5133237;28;20363;-43
2024/01/14 00:33:50;;;;;;;;;;;;;;;;;;5133197;28;20014;-43
2024/01/14 00:36:15;;;;;;;;;;;;;;;;;;5133181;27;20260;-43
2024/01/14 00:38:41;;;;;;;;;;;;;;;;;;5133011;28;20077;-41
2024/01/14 00:41:06;;;;;;;;;;;;;;;;;;5132729;28;19970;-42
2024/01/14 00:43:32;;;;;;;;;;;;;;;;;;5133123;28;20405;-42
2024/01/14 00:45:57;;;;;;;;;;;;;;;;;;5132907;28;19980;-45
2024/01/14 00:48:22;;;;;;;;;;;;;;;;;;5133062;28;20023;-44
2024/01/14 00:50:48;;;;;;;;;;;;;;;;;;5133101;28;19981;-43
2024/01/14 00:53:14;;;;;;;;;;;;;;;;;;5133139;28;19966;-43
2024/01/14 00:55:39;;;;;;;;;;;;;;;;;;5133127;28;20404;-44
2024/01/14 00:58:05;;;;;;;;;;;;;;;;;;5133027;28;19963;-45
2024/01/14 01:00:31;;;;;;;;;;;;;;;;;;5136021;27;20431;-44
2024/01/14 01:02:56;;;;;;;;;;;;;;;;;;5136502;28;19930;-41
2024/01/14 01:05:22;;;;;;;;;;;;;;;;;;5136421;28;20024;-42
2024/01/14 01:07:47;;;;;;;;;;;;;;;;;;5136218;28;19963;-45
2024/01/14 01:10:12;;;;;;;;;;;;;;;;;;5136086;28;20367;-43
2024/01/14 01:12:38;;;;;;;;;;;;;;;;;;5136464;28;20007;-43
2024/01/14 01:15:05;;;;;;;;;;;;;;;;;;5136517;28;20022;-42
2024/01/14 01:17:30;;;;;;;;;;;;;;;;;;5136195;28;19927;-46
2024/01/14 01:19:56;;;;;;;;;;;;;;;;;;5136338;28;19977;-42
2024/01/14 01:22:21;;;;;;;;;;;;;;;;;;5136384;28;20011;-42
2024/01/14 01:24:47;;;;;;;;;;;;;;;;;;5136249;28;20014;-42
2024/01/14 01:27:12;;;;;;;;;;;;;;;;;;5136397;28;19923;-42
2024/01/14 01:29:38;;;;;;;;;;;;;;;;;;5136075;28;19924;-43
2024/01/14 01:32:03;;;;;;;;;;;;;;;;;;5135976;28;19961;-42
2024/01/14 01:34:33;;;;;;;;;;;;;;;;;;5135972;28;20351;-45
2024/01/14 01:36:58;;;;;;;;;;;;;;;;;;5135881;27;19974;-43
2024/01/14 01:39:24;;;;;;;;;;;;;;;;;;5135821;28;19958;-44
2024/01/14 01:41:49;;;;;;;;;;;;;;;;;;5135734;28;19958;-42
2024/01/14 01:44:15;;;;;;;;;;;;;;;;;;5135957;28;20415;-44
2024/01/14 01:46:40;;;;;;;;;;;;;;;;;;5135518;28;19967;-41
2024/01/14 01:49:05;;;;;;;;;;;;;;;;;;5135708;28;20017;-41
2024/01/14 01:51:31;;;;;;;;;;;;;;;;;;5136077;28;20042;-42
2024/01/14 01:53:56;;;;;;;;;;;;;;;;;;5135844;28;19962;-41
2024/01/14 01:56:22;;;;;;;;;;;;;;;;;;5135892;28;20079;-45
2024/01/14 01:58:47;;;;;;;;;;;;;;;;;;5135784;28;20382;-44
2024/01/14 02:01:13;;;;;;;;;;;;;;;;;;5135469;28;19971;-44
2024/01/14 02:03:38;;;;;;;;;;;;;;;;;;5135482;28;19975;-42
2024/01/14 02:06:04;;;;;;;;;;;;;;;;;;5135389;28;19923;-43
2024/01/14 02:08:29;;;;;;;;;;;;;;;;;;5135356;28;20014;-44
2024/01/14 02:10:55;;;;;;;;;;;;;;;;;;5133873;27;19924;-45
2024/01/14 02:13:20;;;;;;;;;;;;;;;;;;5135386;28;20368;-42
2024/01/14 02:15:46;;;;;;;;;;;;;;;;;;5135070;28;20003;-45
2024/01/14 02:18:11;;;;;;;;;;;;;;;;;;5135379;28;19963;-42
2024/01/14 02:20:37;;;;;;;;;;;;;;;;;;5135276;28;19923;-43
2024/01/14 02:23:02;;;;;;;;;;;;;;;;;;5135325;28;20409;-43
2024/01/14 02:25:28;;;;;;;;;;;;;;;;;;5135493;28;20431;-41
2024/01/14 02:27:54;;;;;;;;;;;;;;;;;;5135330;28;19931;-43
2024/01/14 02:30:19;;;;;;;;;;;;;;;;;;5135089;28;19929;-41
2024/01/14 02:32:48;;;;;;;;;;;;;;;;;;5135002;28;20359;-41
2024/01/14 02:35:14;;;;;;;;;;;;;;;;;;5135096;27;20000;-44
2024/01/14 02:37:43;;;;;;;;;;;;;;;;;;5135154;28;19980;-42
2024/01/14 02:40:09;;;;;;;;;;;;;;;;;;5134806;28;20322;-43
2024/01/14 02:42:34;;;;;;;;;;;;;;;;;;5134866;28;19923;-45
2024/01/14 02:45:00;;;;;;;;;;;;;;;;;;5134882;28;19961;-42
2024/01/14 02:47:25;;;;;;;;;;;;;;;;;;5134502;28;20071;-42
2024/01/14 02:49:51;;;;;;;;;;;;;;;;;;5134947;28;20322;-44
2024/01/14 02:52:16;;;;;;;;;;;;;;;;;;5134849;28;19988;-43
2024/01/14 02:54:42;;;;;;;;;;;;;;;;;;5134965;28;19962;-45
2024/01/14 02:57:07;;;;;;;;;;;;;;;;;;5134859;28;19966;-42
2024/01/14 02:59:33;;;;;;;;;;;;;;;;;;5134720;28;20018;-41
2024/01/14 03:01:58;;;;;;;;;;;;;;;;;;5134560;28;19946;-42
2024/01/14 03:04:23;;;;;;;;;;;;;;;;;;5134549;28;19984;-42
2024/01/14 03:06:49;;;;;;;;;;;;;;;;;;5134463;28;19951;-41
2024/01/14 03:09:14;;;;;;;;;;;;;;;;;;5134454;28;20015;-43
2024/01/14 03:11:40;;;;;;;;;;;;;;;;;;5134233;28;20350;-43
2024/01/14 03:14:05;;;;;;;;;;;;;;;;;;5134464;28;20010;-43
2024/01/14 03:16:31;;;;;;;;;;;;;;;;;;5134267;28;19924;-42
2024/01/14 03:18:56;;;;;;;;;;;;;;;;;;5134367;28;19932;-43
2024/01/14 03:21:22;;;;;;;;;;;;;;;;;;5134235;27;20006;-43
2024/01/14 03:23:49;;;;;;;;;;;;;;;;;;5134272;28;19953;-43
2024/01/14 03:26:14;;;;;;;;;;;;;;;;;;5134361;28;19924;-44
2024/01/14 03:28:39;;;;;;;;;;;;;;;;;;5134253;28;19946;-43
2024/01/14 03:31:05;;;;;;;;;;;;;;;;;;5133743;28;19924;-43
2024/01/14 03:33:30;;;;;;;;;;;;;;;;;;5133715;28;19969;-44
2024/01/14 03:35:56;;;;;;;;;;;;;;;;;;5133996;27;19966;-42
2024/01/14 03:38:21;;;;;;;;;;;;;;;;;;5134086;28;20376;-42
2024/01/14 03:40:47;;;;;;;;;;;;;;;;;;5133757;28;19927;-42
2024/01/14 03:43:12;;;;;;;;;;;;;;;;;;5133986;28;20444;-41
2024/01/14 03:45:38;;;;;;;;;;;;;;;;;;5133687;28;19973;-44
2024/01/14 03:48:03;;;;;;;;;;;;;;;;;;5133996;28;19981;-42
2024/01/14 03:50:29;;;;;;;;;;;;;;;;;;5133784;28;20014;-43
2024/01/14 03:52:54;;;;;;;;;;;;;;;;;;5133994;28;20364;-42
2024/01/14 03:55:20;;;;;;;;;;;;;;;;;;5133766;28;19945;-41
2024/01/14 03:57:45;;;;;;;;;;;;;;;;;;5133984;28;19923;-44
2024/01/14 04:00:12;;;;;;;;;;;;;;;;;;5133896;28;20363;-42
2024/01/14 04:02:38;;;;;;;;;;;;;;;;;;5133766;28;19927;-43
2024/01/14 04:05:03;;;;;;;;;;;;;;;;;;5133579;28;20347;-41
2024/01/14 04:07:28;;;;;;;;;;;;;;;;;;5133599;28;19955;-42
2024/01/14 04:09:54;;;;;;;;;;;;;;;;;;5133206;28;20021;-45
2024/01/14 04:12:19;;;;;;;;;;;;;;;;;;5133447;28;19960;-41
2024/01/14 04:14:45;;;;;;;;;;;;;;;;;;5133633;28;20367;-41
2024/01/14 04:17:10;;;;;;;;;;;;;;;;;;5132990;28;20026;-41
2024/01/14 04:19:37;;;;;;;;;;;;;;;;;;5133433;28;20418;-42
2024/01/14 04:22:03;;;;;;;;;;;;;;;;;;5133497;28;19930;-44
2024/01/14 04:24:28;;;;;;;;;;;;;;;;;;5133523;28;19927;-44
2024/01/14 04:26:54;;;;;;;;;;;;;;;;;;5133454;28;20323;-44
2024/01/14 04:29:19;;;;;;;;;;;;;;;;;;5133468;28;19978;-41
2024/01/14 04:31:45;;;;;;;;;;;;;;;;;;5132799;28;20006;-43
2024/01/14 04:34:10;;;;;;;;;;;;;;;;;;5134455;27;19931;-41
2024/01/14 04:36:36;;;;;;;;;;;;;;;;;;5136817;27;19931;-42
2024/01/14 04:39:02;;;;;;;;;;;;;;;;;;5136874;28;19924;-43
2024/01/14 04:41:27;;;;;;;;;;;;;;;;;;5136651;28;19931;-42
2024/01/14 04:43:53;;;;;;;;;;;;;;;;;;5136826;28;19930;-42
2024/01/14 04:46:19;;;;;;;;;;;;;;;;;;5136479;28;19923;-44
2024/01/14 04:48:44;;;;;;;;;;;;;;;;;;5136714;28;19928;-43
2024/01/14 04:51:10;;;;;;;;;;;;;;;;;;5136764;28;19924;-42
2024/01/14 04:53:36;;;;;;;;;;;;;;;;;;5136787;28;19977;-41
2024/01/14 04:56:01;;;;;;;;;;;;;;;;;;5136351;28;19927;-42
2024/01/14 04:58:26;;;;;;;;;;;;;;;;;;5136704;28;20000;-42
2024/01/14 05:00:52;;;;;;;;;;;;;;;;;;5136647;28;20015;-44
2024/01/14 05:03:17;;;;;;;;;;;;;;;;;;5136725;28;20018;-45
2024/01/14 05:05:43;;;;;;;;;;;;;;;;;;5136636;28;19927;-44
2024/01/14 05:08:09;;;;;;;;;;;;;;;;;;5136388;28;19979;-42
2024/01/14 05:10:34;;;;;;;;;;;;;;;;;;5136112;28;19930;-43
2024/01/14 05:12:59;;;;;;;;;;;;;;;;;;5136262;28;19963;-41
2024/01/14 05:15:25;;;;;;;;;;;;;;;;;;5135788;28;20022;-42
2024/01/14 05:17:50;;;;;;;;;;;;;;;;;;5136309;28;19977;-44
2024/01/14 05:20:16;;;;;;;;;;;;;;;;;;5136197;28;19967;-45
2024/01/14 05:22:42;;;;;;;;;;;;;;;;;;5136263;28;19923;-45
2024/01/14 05:25:07;;;;;;;;;;;;;;;;;;5136342;28;19923;-42
2024/01/14 05:27:32;;;;;;;;;;;;;;;;;;5136238;28;20044;-43
2024/01/14 05:29:58;;;;;;;;;;;;;;;;;;5136117;28;19969;-42
2024/01/14 05:32:23;;;;;;;;;;;;;;;;;;5136284;28;20010;-43
2024/01/14 05:34:49;;;;;;;;;;;;;;;;;;5136278;28;19974;-43
2024/01/14 05:37:15;;;;;;;;;;;;;;;;;;5135839;27;20071;-44
2024/01/14 05:39:40;;;;;;;;;;;;;;;;;;5135782;28;19972;-41
2024/01/14 05:42:05;;;;;;;;;;;;;;;;;;5135872;28;19994;-41
2024/01/14 05:44:31;;;;;;;;;;;;;;;;;;5135699;27;19951;-44
2024/01/14 05:46:56;;;;;;;;;;;;;;;;;;5135627;28;19972;-44
2024/01/14 05:49:22;;;;;;;;;;;;;;;;;;5135724;28;19958;-42
2024/01/14 05:51:47;;;;;;;;;;;;;;;;;;5135791;28;19971;-41
2024/01/14 05:54:13;;;;;;;;;;;;;;;;;;5135756;28;19966;-43
2024/01/14 05:56:38;;;;;;;;;;;;;;;;;;5135334;28;20014;-44
2024/01/14 05:59:04;;;;;;;;;;;;;;;;;;5135707;28;20027;-44
2024/01/14 06:01:29;;;;;;;;;;;;;;;;;;5135790;28;19935;-42
2024/01/14 06:03:54;;;;;;;;;;;;;;;;;;5135751;28;20006;-43
2024/01/14 06:06:20;;;;;;;;;;;;;;;;;;5135723;28;19930;-42
2024/01/14 06:08:46;;;;;;;;;;;;;;;;;;5135301;28;19923;-41
2024/01/14 06:11:12;;;;;;;;;;;;;;;;;;5134896;28;19923;-41
2024/01/14 06:13:37;;;;;;;;;;;;;;;;;;5135453;28;19924;-42
2024/01/14 06:16:03;;;;;;;;;;;;;;;;;;5134840;28;19943;-44
2024/01/14 06:18:28;;;;;;;;;;;;;;;;;;5135175;28;20430;-43
2024/01/14 06:20:55;;;;;;;;;;;;;;;;;;5134924;28;20333;-41
2024/01/14 06:23:21;;;;;;;;;;;;;;;;;;5135207;28;19924;-42
2024/01/14 06:25:46;;;;;;;;;;;;;;;;;;5135199;28;20367;-43
2024/01/14 06:28:12;;;;;;;;;;;;;;;;;;5135351;28;19930;-43
2024/01/14 06:30:37;;;;;;;;;;;;;;;;;;5135239;28;20015;-41
2024/01/14 06:33:03;;;;;;;;;;;;;;;;;;5135358;28;19923;-41
2024/01/14 06:35:28;;;;;;;;;;;;;;;;;;5135196;27;19966;-42
2024/01/14 06:37:54;;;;;;;;;;;;;;;;;;5135107;28;19943;-42
2024/01/14 06:40:19;;;;;;;;;;;;;;;;;;5134607;28;20425;-43
2024/01/14 06:42:53;;;;;;;;;;;;;;;;;;5134951;28;19972;-43
2024/01/14 06:45:18;;;;;;;;;;;;;;;;;;5134847;28;19950;-42
2024/01/14 06:47:44;;;;;;;;;;;;;;;;;;5134868;28;20023;-42
2024/01/14 06:50:10;;;;;;;;;;;;;;;;;;5134755;28;20347;-42
2024/01/14 06:52:39;;;;;;;;;;;;;;;;;;5135007;28;19924;-43
2024/01/14 06:55:04;;;;;;;;;;;;;;;;;;5134757;28;20268;-42
2024/01/14 06:57:30;;;;;;;;;;;;;;;;;;5134216;27;19980;-44
2024/01/14 06:59:55;;;;;;;;;;;;;;;;;;5134898;28;19923;-43
2024/01/14 07:02:21;;;;;;;;;;;;;;;;;;5134785;28;19923;-42
2024/01/14 07:04:46;;;;;;;;;;;;;;;;;;5134839;28;19970;-41
2024/01/14 07:07:12;;;;;;;;;;;;;;;;;;5134645;28;19930;-41
2024/01/14 07:09:37;;;;;;;;;;;;;;;;;;5134313;28;19928;-41
2024/01/14 07:12:03;;;;;;;;;;;;;;;;;;5134306;28;20317;-43
2024/01/14 07:14:29;;;;;;;;;;;;;;;;;;5134600;28;19992;-41
2024/01/14 07:16:54;;;;;;;;;;;;;;;;;;5134254;28;19931;-41
2024/01/14 07:19:20;;;;;;;;;;;;;;;;;;5134327;28;19931;-42
2024/01/14 07:21:45;;;;;;;;;;;;;;;;;;5134142;28;19967;-42
2024/01/14 07:24:11;;;;;;;;;;;;;;;;;;5134386;28;20014;-41
2024/01/14 07:26:36;;;;;;;;;;;;;;;;;;5134440;28;20010;-42
2024/01/14 07:29:02;;;;;;;;;;;;;;;;;;5134313;28;20002;-42
2024/01/14 07:31:27;;;;;;;;;;;;;;;;;;5134243;28;20060;-43
2024/01/14 07:33:53;;;;;;;;;;;;;;;;;;5134326;28;19924;-42
2024/01/14 07:36:19;;;;;;;;;;;;;;;;;;5134224;27;20369;-42
2024/01/14 07:38:44;;;;;;;;;;;;;;;;;;5134207;28;19924;-43
2024/01/14 07:41:10;;;;;;;;;;;;;;;;;;5133867;28;19952;-44
2024/01/14 07:43:35;;;;;;;;;;;;;;;;;;5133865;28;19998;-41
2024/01/14 07:46:01;;;;;;;;;;;;;;;;;;5133475;28;19974;-41
2024/01/14 07:48:26;;;;;;;;;;;;;;;;;;5133733;28;19966;-41
2024/01/14 07:50:52;;;;;;;;;;;;;;;;;;5133929;28;20358;-42
2024/01/14 07:53:18;;;;;;;;;;;;;;;;;;5133966;28;19962;-41
2024/01/14 07:55:43;;;;;;;;;;;;;;;;;;5133945;28;19928;-44
2024/01/14 07:58:11;;;;;;;;;;;;;;;;;;5133939;28;20311;-44
2024/01/14 08:00:36;;;;;;;;;;;;;;;;;;5133865;28;19931;-45
2024/01/14 08:03:05;;;;;;;;;;;;;;;;;;5133897;28;19931;-43
2024/01/14 08:05:31;;;;;;;;;;;;;;;;;;5133944;28;19955;-43
2024/01/14 08:07:56;;;;;;;;;;;;;;;;;;5133375;27;19952;-41
2024/01/14 08:10:22;;;;;;;;;;;;;;;;;;5132552;28;20073;-42
2024/01/14 08:12:47;;;;;;;;;;;;;;;;;;5133562;28;19962;-43
2024/01/14 08:15:13;;;;;;;;;;;;;;;;;;5133340;28;19928;-43
2024/01/14 08:17:39;;;;;;;;;;;;;;;;;;5133357;28;19998;-43
2024/01/14 08:20:05;;;;;;;;;;;;;;;;;;5133468;28;19972;-43
2024/01/14 08:22:30;;;;;;;;;;;;;;;;;;5133546;28;19931;-44
2024/01/14 08:24:56;;;;;;;;;;;;;;;;;;5133494;28;20264;-41
2024/01/14 08:27:21;;;;;;;;;;;;;;;;;;5133425;28;20006;-42
2024/01/14 08:29:47;;;;;;;;;;;;;;;;;;5133371;28;20018;-44
2024/01/14 08:32:12;;;;;;;;;;;;;;;;;;5133619;28;19955;-43
2024/01/14 08:34:37;;;;;;;;;;;;;;;;;;5133481;28;20018;-42
2024/01/14 08:37:03;;;;;;;;;;;;;;;;;;5133318;27;20370;-42
2024/01/14 08:39:29;;;;;;;;;;;;;;;;;;5133333;28;20014;-42
2024/01/14 08:41:54;;;;;;;;;;;;;;;;;;5132883;28;19973;-41
2024/01/14 08:44:20;;;;;;;;;;;;;;;;;;5133040;28;19970;-42
2024/01/14 08:46:49;;;;;;;;;;;;;;;;;;5132610;28;19935;-44
2024/01/14 08:49:15;;;;;;;;;;;;;;;;;;5133044;28;20119;-43
2024/01/14 08:51:40;;;;;;;;;;;;;;;;;;5133071;28;20061;-42
2024/01/14 08:54:06;;;;;;;;;;;;;;;;;;5133123;28;20020;-43
2024/01/14 08:56:31;;;;;;;;;;;;;;;;;;5132992;28;20018;-43
2024/01/14 08:58:57;;;;;;;;;;;;;;;;;;5133110;28;19923;-41
2024/01/14 09:01:22;;;;;;;;;;;;;;;;;;5133188;28;19968;-41
2024/01/14 09:03:48;;;;;;;;;;;;;;;;;;5133078;28;19924;-41
2024/01/14 09:06:14;;;;;;;;;;;;;;;;;;5133086;28;19930;-40
2024/01/14 09:08:39;;;;;;;;;;;;;;;;;;5132961;28;20372;-41
2024/01/14 09:11:05;;;;;;;;;;;;;;;;;;5132451;28;20326;-42
2024/01/14 09:13:30;;;;;;;;;;;;;;;;;;5132494;28;20287;-40
2024/01/14 09:15:55;;;;;;;;;;;;;;;;;;5132505;28;20363;-41
2024/01/14 09:18:21;;;;;;;;;;;;;;;;;;5132675;28;20007;-41
2024/01/14 09:20:46;;;;;;;;;;;;;;;;;;5134525;27;19931;-42
2024/01/14 09:23:12;;;;;;;;;;;;;;;;;;5136183;28;19966;-41
2024/01/14 09:25:37;;;;;;;;;;;;;;;;;;5136239;28;20364;-41
2024/01/14 09:28:03;;;;;;;;;;;;;;;;;;5136413;28;19978;-41
2024/01/14 09:30:28;;;;;;;;;;;;;;;;;;5136123;28;19931;-42
2024/01/14 09:32:57;;;;;;;;;;;;;;;;;;5136257;28;19968;-42
2024/01/14 09:35:22;;;;;;;;;;;;;;;;;;5136204;27;20014;-41
2024/01/14 09:37:48;;;;;;;;;;;;;;;;;;5136183;28;20348;-41
2024/01/14 09:40:13;;;;;;;;;;;;;;;;;;5135910;28;19946;-42
2024/01/14 09:42:39;;;;;;;;;;;;;;;;;;5135836;28;20439;-42
2024/01/14 09:45:05;;;;;;;;;;;;;;;;;;5135846;28;20014;-41
2024/01/14 09:47:31;;;;;;;;;;;;;;;;;;5135405;28;19931;-41
2024/01/14 09:49:58;;;;;;;;;;;;;;;;;;5135721;28;19988;-41
2024/01/14 09:52:24;;;;;;;;;;;;;;;;;;5135895;28;19927;-42
2024/01/14 09:54:49;;;;;;;;;;;;;;;;;;5135535;28;19930;-42
2024/01/14 09:57:15;;;;;;;;;;;;;;;;;;5135959;28;20438;-43
2024/01/14 09:59:40;;;;;;;;;;;;;;;;;;5135793;28;20358;-41
2024/01/14 10:02:06;;;;;;;;;;;;;;;;;;5135732;28;20076;-42
2024/01/14 10:04:31;;;;;;;;;;;;;;;;;;5135744;28;19977;-42
2024/01/14 10:06:57;;;;;;;;;;;;;;;;;;5135715;28;20026;-41
2024/01/14 10:09:24;;;;;;;;;;;;;;;;;;5135601;28;19981;-42
2024/01/14 10:11:49;;;;;;;;;;;;;;;;;;5135252;28;19924;-42
2024/01/14 10:14:14;;;;;;;;;;;;;;;;;;5135489;28;20022;-42
2024/01/14 10:16:40;;;;;;;;;;;;;;;;;;5134799;28;20006;-42
2024/01/14 10:19:17;;;;;;;;;;;;;;;;;;5135180;28;20291;-42
2024/01/14 10:21:42;;;;;;;;;;;;;;;;;;5135366;28;19974;-41
2024/01/14 10:24:08;;;;;;;;;;;;;;;;;;5135227;28;20371;-43
2024/01/14 10:26:33;;;;;;;;;;;;;;;;;;5135264;28;20383;-42
2024/01/14 10:28:59;;;;;;;;;;;;;;;;;;5135353;28;19935;-42
2024/01/14 10:31:24;;;;;;;;;;;;;;;;;;5134382;27;19969;-42
2024/01/14 10:33:51;;;;;;;;;;;;;;;;;;5135138;28;19974;-41
2024/01/14 10:36:16;;;;;;;;;;;;;;;;;;5135343;27;19924;-41
2024/01/14 10:38:42;;;;;;;;;;;;;;;;;;5135172;28;20330;-42
2024/01/14 10:41:07;;;;;;;;;;;;;;;;;;5134675;28;20010;-41
2024/01/14 10:43:34;;;;;;;;;;;;;;;;;;5134929;28;19923;-41
2024/01/14 10:46:00;;;;;;;;;;;;;;;;;;5134683;28;19972;-43
2024/01/14 10:48:26;;;;;;;;;;;;;;;;;;5134892;28;19924;-41
2024/01/14 10:50:51;;;;;;;;;;;;;;;;;;5134839;28;19934;-41
2024/01/14 10:53:17;;;;;;;;;;;;;;;;;;5134830;28;20019;-41
2024/01/14 10:55:42;;;;;;;;;;;;;;;;;;5134818;28;19934;-42
2024/01/14 10:58:07;;;;;;;;;;;;;;;;;;5134678;28;19989;-41
2024/01/14 11:00:34;;;;;;;;;;;;;;;;;;5134781;28;20387;-42
2024/01/14 11:02:59;;;;;;;;;;;;;;;;;;5134838;28;19923;-42
2024/01/14 11:05:25;;;;;;;;;;;;;;;;;;5134882;28;20352;-41
2024/01/14 11:07:50;;;;;;;;;;;;;;;;;;5134659;28;20306;-42
2024/01/14 11:10:16;;;;;;;;;;;;;;;;;;5134372;28;19959;-41
2024/01/14 11:12:41;;;;;;;;;;;;;;;;;;5134405;28;19923;-41
2024/01/14 11:15:07;;;;;;;;;;;;;;;;;;5134260;28;19975;-42
2024/01/14 11:17:32;;;;;;;;;;;;;;;;;;5134154;28;19967;-40
2024/01/14 11:19:58;;;;;;;;;;;;;;;;;;5134363;28;20330;-41
2024/01/14 11:22:26;;;;;;;;;;;;;;;;;;5134388;28;20142;-44
2024/01/14 11:24:58;;;;;;;;;;;;;;;;;;5134216;28;19923;-41
2024/01/14 11:27:24;;;;;;;;;;;;;;;;;;5134453;28;20410;-42
2024/01/14 11:29:50;;;;;;;;;;;;;;;;;;5134214;28;19923;-40
2024/01/14 11:32:19;;;;;;;;;;;;;;;;;;5134370;28;20026;-40
2024/01/14 11:34:44;;;;;;;;;;;;;;;;;;5134510;28;19923;-42
2024/01/14 11:37:10;;;;;;;;;;;;;;;;;;5134434;27;19923;-41
2024/01/14 11:39:35;;;;;;;;;;;;;;;;;;5133618;28;20002;-41
2024/01/14 11:42:01;;;;;;;;;;;;;;;;;;5133842;28;19963;-42
2024/01/14 11:44:26;;;;;;;;;;;;;;;;;;5133837;27;20019;-41
2024/01/14 11:46:52;;;;;;;;;;;;;;;;;;5133797;28;19962;-42
2024/01/14 11:49:19;;;;;;;;;;;;;;;;;;5134028;28;19931;-43
2024/01/14 11:51:49;;;;;;;;;;;;;;;;;;5133989;28;19923;-42
2024/01/14 11:54:15;;;;;;;;;;;;;;;;;;5134004;28;19999;-42
2024/01/14 11:56:40;;;;;;;;;;;;;;;;;;5133704;28;20018;-41
2024/01/14 11:59:06;;;;;;;;;;;;;;;;;;5134109;28;20344;-42
2024/01/14 12:01:32;;;;;;;;;;;;;;;;;;5133903;28;19966;-41
2024/01/14 12:03:58;;;;;;;;;;;;;;;;;;5133887;28;19924;-41
2024/01/14 12:06:23;;;;;;;;;;;;;;;;;;5133988;28;20018;-41
2024/01/14 12:08:49;;;;;;;;;;;;;;;;;;5133666;28;19924;-41
2024/01/14 12:11:15;;;;;;;;;;;;;;;;;;5133405;28;20010;-42
2024/01/14 12:13:40;;;;;;;;;;;;;;;;;;5133943;28;19984;-44
2024/01/14 12:16:06;;;;;;;;;;;;;;;;;;5133401;28;20010;-43
2024/01/14 12:18:31;;;;;;;;;;;;;;;;;;5133255;28;19923;-41
2024/01/14 12:20:57;;;;;;;;;;;;;;;;;;5133609;28;19966;-42
2024/01/14 12:23:22;;;;;;;;;;;;;;;;;;5133493;28;20015;-43
2024/01/14 12:25:48;;;;;;;;;;;;;;;;;;5133651;28;19931;-42
2024/01/14 12:28:14;;;;;;;;;;;;;;;;;;5133549;28;19923;-40
2024/01/14 12:30:39;;;;;;;;;;;;;;;;;;5133418;28;20286;-42
2024/01/14 12:33:05;;;;;;;;;;;;;;;;;;5133565;28;19988;-42
2024/01/14 12:35:30;;;;;;;;;;;;;;;;;;5133475;27;19923;-41
2024/01/14 12:37:56;;;;;;;;;;;;;;;;;;5133413;28;20337;-41
2024/01/14 12:40:21;;;;;;;;;;;;;;;;;;5132579;28;19986;-41
2024/01/14 12:42:46;;;;;;;;;;;;;;;;;;5133183;28;20010;-41
2024/01/14 12:45:12;;;;;;;;;;;;;;;;;;5133138;28;19971;-42
2024/01/14 12:47:37;;;;;;;;;;;;;;;;;;5133033;28;20006;-41
2024/01/14 12:50:03;;;;;;;;;;;;;;;;;;5133006;28;19989;-40
2024/01/14 12:52:28;;;;;;;;;;;;;;;;;;5133196;28;20010;-41
2024/01/14 12:54:54;;;;;;;;;;;;;;;;;;5133654;27;20244;-41
2024/01/14 12:57:19;;;;;;;;;;;;;;;;;;5136960;28;20006;-42
2024/01/14 12:59:48;;;;;;;;;;;;;;;;;;5136869;28;19923;-43
2024/01/14 13:02:14;;;;;;;;;;;;;;;;;;5136806;28;20485;-40
2024/01/14 13:04:39;;;;;;;;;;;;;;;;;;5136264;28;19930;-42
2024/01/14 13:07:05;;;;;;;;;;;;;;;;;;5136762;28;20064;-41
2024/01/14 13:09:37;;;;;;;;;;;;;;;;;;5136521;28;19923;-40
2024/01/14 13:12:03;;;;;;;;;;;;;;;;;;5136379;28;20363;-42
2024/01/14 13:14:30;;;;;;;;;;;;;;;;;;5136431;28;20039;-43
2024/01/14 13:16:55;;;;;;;;;;;;;;;;;;5136273;28;19924;-41
2024/01/14 13:19:21;;;;;;;;;;;;;;;;;;5136339;28;19934;-41
2024/01/14 13:21:46;;;;;;;;;;;;;;;;;;5136433;28;20030;-42
2024/01/14 13:24:12;;;;;;;;;;;;;;;;;;5136484;28;20017;-42
2024/01/14 13:26:40;;;;;;;;;;;;;;;;;;5136372;28;19924;-41
2024/01/14 13:29:06;;;;;;;;;;;;;;;;;;5136276;28;19930;-40
2024/01/14 13:31:31;;;;;;;;;;;;;;;;;;5136357;28;19927;-43
2024/01/14 13:33:57;;;;;;;;;;;;;;;;;;5136417;28;20020;-41
2024/01/14 13:36:28;;;;;;;;;;;;;;;;;;5136350;27;20279;-41
2024/01/14 13:38:55;;;;;;;;;;;;;;;;;;5136223;28;20014;-42
2024/01/14 13:41:20;;;;;;;;;;;;;;;;;;5135828;28;19935;-44
2024/01/14 13:43:46;;;;;;;;;;;;;;;;;;5135942;28;20064;-42
2024/01/14 13:46:12;;;;;;;;;;;;;;;;;;5135613;28;19927;-41
2024/01/14 13:48:37;;;;;;;;;;;;;;;;;;5135961;28;20044;-44
2024/01/14 13:51:03;;;;;;;;;;;;;;;;;;5135873;28;19924;-40
2024/01/14 13:53:28;;;;;;;;;;;;;;;;;;5136011;28;19923;-41
2024/01/14 13:55:54;;;;;;;;;;;;;;;;;;5135827;28;19930;-41
2024/01/14 13:58:20;;;;;;;;;;;;;;;;;;5135767;28;19977;-42
2024/01/14 14:00:45;;;;;;;;;;;;;;;;;;5135767;28;20374;-43
2024/01/14 14:03:11;;;;;;;;;;;;;;;;;;5135874;28;19978;-41
2024/01/14 14:05:37;;;;;;;;;;;;;;;;;;5134609;27;21178;-42
2024/01/14 14:08:03;;;;;;;;;;;;;;;;;;5134487;28;20021;-42
2024/01/14 14:10:28;;;;;;;;;;;;;;;;;;5135238;28;20018;-40
2024/01/14 14:12:54;;;;;;;;;;;;;;;;;;5135437;28;20391;-41
2024/01/14 14:15:19;;;;;;;;;;;;;;;;;;5135243;28;19923;-40
2024/01/14 14:17:45;;;;;;;;;;;;;;;;;;5135456;28;19962;-42
2024/01/14 14:20:15;;;;;;;;;;;;;;;;;;5135532;28;19930;-41
2024/01/14 14:22:40;;;;;;;;;;;;;;;;;;5135498;28;19954;-41
2024/01/14 14:25:06;;;;;;;;;;;;;;;;;;5135334;28;19944;-41
2024/01/14 14:27:31;;;;;;;;;;;;;;;;;;5135438;28;20278;-41
2024/01/14 14:29:57;;;;;;;;;;;;;;;;;;5134736;28;20037;-42
2024/01/14 14:32:22;;;;;;;;;;;;;;;;;;5135461;28;20355;-41
2024/01/14 14:34:48;;;;;;;;;;;;;;;;;;5135427;28;20366;-41
2024/01/14 14:37:13;;;;;;;;;;;;;;;;;;5135236;27;19976;-41
2024/01/14 14:39:39;;;;;;;;;;;;;;;;;;5135072;28;19935;-42
2024/01/14 14:42:06;;;;;;;;;;;;;;;;;;5134963;28;20395;-42
2024/01/14 14:44:32;;;;;;;;;;;;;;;;;;5134696;28;20290;-41
2024/01/14 14:46:57;;;;;;;;;;;;;;;;;;5134530;28;19971;-41
2024/01/14 14:49:23;;;;;;;;;;;;;;;;;;5134818;28;20319;-42
2024/01/14 14:51:48;;;;;;;;;;;;;;;;;;5134918;28;19962;-40
2024/01/14 14:54:14;;;;;;;;;;;;;;;;;;5135021;28;20014;-42
2024/01/14 14:56:39;;;;;;;;;;;;;;;;;;5134767;28;19930;-41
2024/01/14 14:59:05;;;;;;;;;;;;;;;;;;5135039;28;19923;-41
2024/01/14 15:01:31;;;;;;;;;;;;;;;;;;5134703;28;20038;-41
2024/01/14 15:04:02;;;;;;;;;;;;;;;;;;5134877;28;19927;-41
2024/01/14 15:06:28;;;;;;;;;;;;;;;;;;5134804;28;20060;-41
2024/01/14 15:08:54;;;;;;;;;;;;;;;;;;5134741;28;19959;-42
2024/01/14 15:11:19;;;;;;;;;;;;;;;;;;5134321;28;20061;-42
2024/01/14 15:13:52;;;;;;;;;;;;;;;;;;5134587;28;19931;-43
2024/01/14 15:16:18;;;;;;;;;;;;;;;;;;5134188;28;20454;-42
2024/01/14 15:18:43;;;;;;;;;;;;;;;;;;5134121;27;20010;-42
2024/01/14 15:21:09;;;;;;;;;;;;;;;;;;5134500;28;19927;-41
2024/01/14 15:23:34;;;;;;;;;;;;;;;;;;5134560;28;20320;-42
2024/01/14 15:26:00;;;;;;;;;;;;;;;;;;5134387;28;19987;-41
2024/01/14 15:28:28;;;;;;;;;;;;;;;;;;5134444;28;19924;-41
2024/01/14 15:30:53;;;;;;;;;;;;;;;;;;5133710;28;20052;-41
2024/01/14 15:33:27;;;;;;;;;;;;;;;;;;5134473;28;19924;-42
2024/01/14 15:35:52;;;;;;;;;;;;;;;;;;5134089;27;20018;-42
2024/01/14 15:38:18;;;;;;;;;;;;;;;;;;5134142;28;20332;-41
2024/01/14 15:40:44;;;;;;;;;;;;;;;;;;5133935;28;19924;-41
2024/01/14 15:43:12;;;;;;;;;;;;;;;;;;5133696;28;20275;-41
2024/01/14 15:45:38;;;;;;;;;;;;;;;;;;5133472;28;20371;-44
2024/01/14 15:48:05;;;;;;;;;;;;;;;;;;5134068;28;19930;-42
2024/01/14 15:50:31;;;;;;;;;;;;;;;;;;5133989;28;19971;-41
2024/01/14 15:52:56;;;;;;;;;;;;;;;;;;5134019;28;20010;-41
2024/01/14 15:55:22;;;;;;;;;;;;;;;;;;5133636;28;19966;-43
2024/01/14 15:57:47;;;;;;;;;;;;;;;;;;5133893;28;19931;-43
2024/01/14 16:00:14;;;;;;;;;;;;;;;;;;5134043;28;19927;-42
2024/01/14 16:02:39;;;;;;;;;;;;;;;;;;5133963;28;19924;-41
2024/01/14 16:05:05;;;;;;;;;;;;;;;;;;5133854;28;19924;-41
2024/01/14 16:07:32;;;;;;;;;;;;;;;;;;5133632;28;19976;-40
2024/01/14 16:09:57;;;;;;;;;;;;;;;;;;5133371;28;19982;-42
2024/01/14 16:12:23;;;;;;;;;;;;;;;;;;5133593;28;19962;-40
2024/01/14 16:14:48;;;;;;;;;;;;;;;;;;5133349;28;20040;-41
2024/01/14 16:17:14;;;;;;;;;;;;;;;;;;5133288;28;20422;-43
2024/01/14 16:19:39;;;;;;;;;;;;;;;;;;5133494;28;19961;-42
2024/01/14 16:22:04;;;;;;;;;;;;;;;;;;5133609;28;20041;-41
2024/01/14 16:24:30;;;;;;;;;;;;;;;;;;5133522;28;19930;-43
2024/01/14 16:26:57;;;;;;;;;;;;;;;;;;5133374;28;19972;-42
2024/01/14 16:29:23;;;;;;;;;;;;;;;;;;5132609;27;19973;-42
2024/01/14 16:31:49;;;;;;;;;;;;;;;;;;5133235;28;20299;-40
2024/01/14 16:34:14;;;;;;;;;;;;;;;;;;5133525;28;20351;-42
2024/01/14 16:36:42;;;;;;;;;;;;;;;;;;5133369;27;19985;-42